Time;durP1;ratioP1;P1;durP2;ratioP2;P2;SDS_P1;SDS_P2;PMS_P1;PMS_P2;Temp;Humidity;BMP_temperature;BMP_pressure;BME280_temperature;BME280_humidity;BME280_pressure;Samples;Min_cycle;Max_cycle;Signal;HPM_P1;HPM_P2
2022/01/14 00:01:58;;;;;;;46.08;18.67;;;;;;;2.46;96.36;103650.25;5070322;28;20127;-67
2022/01/14 00:04:24;;;;;;;36.67;18.00;;;;;;;2.46;96.28;103644.03;5073049;28;20029;-67
2022/01/14 00:06:50;;;;;;;37.83;18.20;;;;;;;2.42;96.84;103648.72;5072057;28;20044;-67
2022/01/14 00:09:17;;;;;;;48.72;18.15;;;;;;;2.43;96.45;103653.13;5072276;28;20029;-67
2022/01/14 00:11:47;;;;;;;44.80;18.63;;;;;;;2.42;96.77;103647.88;5070737;28;20593;-67
2022/01/14 00:16:42;;;;;;;37.42;18.58;;;;;;;2.43;96.51;103645.09;5071645;28;20405;-67
2022/01/14 00:19:08;;;;;;;40.85;17.85;;;;;;;2.44;97.08;103653.97;5072194;28;20089;-67
2022/01/14 00:21:36;;;;;;;51.08;16.85;;;;;;;2.44;96.43;103643.28;5070652;28;20028;-68
2022/01/14 00:24:11;;;;;;;44.08;17.65;;;;;;;2.41;96.51;103620.28;5072999;28;20028;-67
2022/01/14 00:32:20;;;;;;;31.63;16.52;;;;;;;2.36;96.29;103629.59;5072904;28;20188;-67
2022/01/14 00:34:46;;;;;;;55.00;16.95;;;;;;;2.37;96.16;103625.94;5071613;28;20089;-67
2022/01/14 00:37:13;;;;;;;43.22;17.50;;;;;;;2.33;96.49;103627.13;5072016;28;20111;-67
2022/01/14 00:39:38;;;;;;;43.38;17.90;;;;;;;2.30;96.23;103623.66;5072187;28;20029;-67
2022/01/14 00:42:04;;;;;;;52.17;17.17;;;;;;;2.30;96.49;103622.81;5075914;28;20353;-67
2022/01/14 00:44:30;;;;;;;76.10;16.83;;;;;;;2.24;95.93;103618.72;5075679;28;20024;-67
2022/01/14 00:46:55;;;;;;;39.95;15.80;;;;;;;2.24;96.37;103624.06;5075620;28;20035;-67
2022/01/14 00:49:20;;;;;;;35.47;16.17;;;;;;;2.20;96.41;103609.19;5075634;28;20036;-67
2022/01/14 00:51:47;;;;;;;27.05;15.57;;;;;;;2.23;96.17;103605.47;5075398;28;20060;-67
2022/01/14 00:54:13;;;;;;;37.55;16.15;;;;;;;2.19;96.49;103594.16;5075240;28;20037;-67
2022/01/14 00:59:14;;;;;;;37.25;16.15;;;;;;;2.20;96.42;103579.81;5074400;28;20115;-67
2022/01/14 01:01:50;;;;;;;48.05;16.45;;;;;;;2.18;96.65;103573.72;5072697;28;20533;-67
2022/01/14 01:04:19;;;;;;;34.95;15.38;;;;;;;2.19;96.45;103588.81;5075343;28;20036;-67
2022/01/14 01:06:46;;;;;;;51.28;15.68;;;;;;;2.18;96.44;103576.41;5074877;28;20024;-68
2022/01/14 01:09:12;;;;;;;53.65;14.70;;;;;;;2.12;95.84;103582.16;5075251;28;20047;-67
2022/01/14 01:11:49;;;;;;;34.67;15.98;;;;;;;2.11;96.25;103581.31;5074986;28;20033;-67
2022/01/14 01:14:20;;;;;;;53.67;15.68;;;;;;;2.12;96.29;103584.81;5076072;28;20111;-67
2022/01/14 01:16:45;;;;;;;46.42;14.75;;;;;;;2.07;96.00;103579.78;5074933;28;20035;-67
2022/01/14 01:19:11;;;;;;;61.45;14.55;;;;;;;2.05;96.04;103570.16;5075098;28;20025;-67
2022/01/14 01:21:36;;;;;;;62.97;14.48;;;;;;;1.99;95.96;103565.22;5074861;28;20032;-68
2022/01/14 01:24:02;;;;;;;55.50;14.90;;;;;;;1.95;95.81;103564.56;5074702;28;20112;-67
2022/01/14 01:26:34;;;;;;;42.92;14.27;;;;;;;1.91;96.21;103569.25;5075029;28;20028;-67
2022/01/14 01:31:39;;;;;;;38.67;14.07;;;;;;;1.92;96.07;103562.97;5074701;28;20123;-67
2022/01/14 01:34:12;;;;;;;48.20;13.93;;;;;;;1.89;96.35;103570.31;5074842;28;20150;-67
2022/01/14 01:36:40;;;;;;;31.48;13.65;;;;;;;1.98;96.59;103568.84;5074605;28;20124;-67
2022/01/14 01:39:09;;;;;;;49.55;14.00;;;;;;;1.94;95.78;103569.03;5074750;28;20082;-67
2022/01/14 01:41:36;;;;;;;39.05;13.82;;;;;;;1.91;96.52;103563.06;5074470;28;20128;-67
2022/01/14 01:44:06;;;;;;;33.25;14.25;;;;;;;1.91;96.33;103568.41;5073675;28;20045;-67
2022/01/14 01:46:31;;;;;;;25.75;14.10;;;;;;;1.91;96.11;103558.56;5074366;28;20028;-67
2022/01/14 01:48:56;;;;;;;52.60;13.90;;;;;;;1.92;96.95;103560.28;5074555;28;20460;-67
2022/01/14 01:51:22;;;;;;;45.28;14.35;;;;;;;1.91;96.21;103561.22;5074518;28;20036;-67
2022/01/14 01:53:48;;;;;;;31.60;13.85;;;;;;;1.91;96.06;103552.38;5073998;28;20090;-67
2022/01/14 01:56:14;;;;;;;39.30;15.02;;;;;;;1.91;96.37;103553.22;5074406;28;20024;-67
2022/01/14 01:58:40;;;;;;;32.38;14.73;;;;;;;1.93;96.34;103545.09;5073375;28;20487;-67
2022/01/14 02:01:07;;;;;;;50.45;14.93;;;;;;;1.92;96.06;103557.63;5070707;28;20028;-67
2022/01/14 02:03:34;;;;;;;53.28;15.40;;;;;;;1.91;96.47;103563.06;5073969;28;20032;-67
2022/01/14 02:06:00;;;;;;;53.33;14.20;;;;;;;1.91;96.63;103561.22;5074206;28;20078;-67
2022/01/14 02:08:26;;;;;;;47.35;14.15;;;;;;;1.90;96.52;103556.88;5074173;28;20426;-67
2022/01/14 02:10:51;;;;;;;55.90;14.98;;;;;;;1.91;96.41;103563.06;5073834;28;20067;-67
2022/01/14 02:13:16;;;;;;;37.75;13.52;;;;;;;1.91;96.42;103558.56;5073093;28;20028;-68
2022/01/14 02:23:54;;;;;;;36.15;14.27;;;;;;;1.93;96.47;103534.44;5073412;28;20479;-67
2022/01/14 02:26:22;;;;;;;44.40;14.82;;;;;;;1.92;96.30;103536.25;5073741;28;20084;-67
2022/01/14 02:28:48;;;;;;;31.17;13.25;;;;;;;1.93;96.20;103535.31;5072098;28;20028;-67
2022/01/14 02:31:14;;;;;;;37.60;13.23;;;;;;;1.94;96.07;103530.81;5072384;28;20029;-67
2022/01/14 02:33:40;;;;;;;32.05;13.25;;;;;;;1.94;95.27;103526.31;5073407;28;20033;-67
2022/01/14 02:36:05;;;;;;;36.20;13.20;;;;;;;1.89;95.23;103523.09;5074586;28;20071;-68
2022/01/14 02:38:31;;;;;;;39.75;13.25;;;;;;;1.88;95.94;103516.03;5073502;28;20067;-67
2022/01/14 02:40:57;;;;;;;28.70;12.93;;;;;;;1.85;95.77;103518.91;5073216;28;20036;-67
2022/01/14 02:43:23;;;;;;;41.40;12.73;;;;;;;1.81;95.95;103511.22;5071163;28;20539;-67
2022/01/14 02:45:52;;;;;;;55.97;12.77;;;;;;;1.78;96.16;103522.94;5073158;28;20031;-67
2022/01/14 02:48:20;;;;;;;52.55;11.82;;;;;;;1.77;95.86;103529.25;5073340;28;20081;-67
2022/01/14 02:50:58;;;;;;;31.88;11.18;;;;;;;1.76;95.18;103525.72;5072992;28;20036;-67
2022/01/14 02:55:56;;;;;;;32.67;12.13;;;;;;;1.77;95.22;103513.25;5072983;28;20136;-67
2022/01/14 02:58:23;;;;;;;27.55;11.93;;;;;;;1.80;95.56;103517.50;5077312;28;20035;-67
2022/01/14 03:00:51;;;;;;;35.35;12.05;;;;;;;1.81;95.34;103512.06;5090812;28;20043;-67
2022/01/14 03:03:16;;;;;;;57.03;12.23;;;;;;;1.82;95.41;103516.44;5092924;28;20040;-67
2022/01/14 03:05:42;;;;;;;52.70;11.70;;;;;;;1.80;95.56;103514.81;5092752;28;20099;-68
2022/01/14 03:08:07;;;;;;;32.25;11.75;;;;;;;1.74;95.09;103526.78;5093190;28;20166;-67
2022/01/14 03:10:32;;;;;;;27.85;12.63;;;;;;;1.75;94.97;103528.47;5079699;28;20459;-67
2022/01/14 03:12:58;;;;;;;34.42;12.82;;;;;;;1.74;95.49;103521.44;5051552;28;20029;-70
2022/01/14 03:15:23;;;;;;;49.33;13.00;;;;;;;1.74;95.06;103522.28;5051930;28;20036;-72
2022/01/14 03:17:48;;;;;;;39.00;11.75;;;;;;;1.74;95.19;103518.78;5052349;28;20025;-67
2022/01/14 03:20:43;;;;;;;44.83;11.77;;;;;;;1.71;95.27;103510.97;5054589;28;20068;-67
2022/01/14 03:23:05;;;;;;;19.95;12.00;;;;;;;1.75;95.16;103512.47;5052119;28;20044;-67
2022/01/14 03:26:04;;;;;;;21.73;12.40;;;;;;;1.76;95.15;103519.53;5060816;28;20025;-67
2022/01/14 03:28:23;;;;;;;62.50;12.43;;;;;;;1.77;94.74;103514.09;5072421;28;20086;-67
2022/01/14 03:30:52;;;;;;;25.10;12.27;;;;;;;1.75;94.97;103521.34;5072204;28;20025;-68
2022/01/14 03:33:18;;;;;;;43.78;12.35;;;;;;;1.70;95.42;103518.09;5068705;28;20040;-67
2022/01/14 03:35:43;;;;;;;39.45;12.32;;;;;;;1.68;95.58;103527.19;5051091;28;20025;-67
2022/01/14 03:38:08;;;;;;;55.75;12.93;;;;;;;1.67;95.05;103525.47;5051285;28;20032;-67
2022/01/14 03:40:34;;;;;;;43.47;12.75;;;;;;;1.64;95.13;103515.00;5052268;28;20090;-68
2022/01/14 03:42:59;;;;;;;40.85;12.70;;;;;;;1.64;95.15;103515.84;5057295;28;20024;-68
2022/01/14 03:45:25;;;;;;;37.15;13.13;;;;;;;1.67;95.14;103509.47;5071435;28;20043;-67
2022/01/14 03:47:50;;;;;;;34.25;12.88;;;;;;;1.69;95.12;103511.06;5072323;28;20074;-67
2022/01/14 03:50:15;;;;;;;61.95;13.07;;;;;;;1.68;95.30;103513.84;5072539;28;20082;-67
2022/01/14 03:52:40;;;;;;;36.22;12.48;;;;;;;1.68;94.57;103513.84;5071971;28;20055;-67
2022/01/14 03:55:06;;;;;;;74.68;12.60;;;;;;;1.66;95.46;103510.41;5072456;28;20040;-67
2022/01/14 03:57:31;;;;;;;42.50;13.13;;;;;;;1.64;95.40;103513.19;5072413;28;20387;-67
2022/01/14 03:59:57;;;;;;;25.77;12.88;;;;;;;1.64;95.46;103513.19;5070329;28;20056;-67
2022/01/14 04:02:22;;;;;;;47.50;13.05;;;;;;;1.63;95.29;103514.16;5069358;28;20033;-67
2022/01/14 04:04:47;;;;;;;46.97;13.20;;;;;;;1.62;95.62;103514.25;5072038;28;20032;-67
2022/01/14 04:07:13;;;;;;;56.33;13.50;;;;;;;1.63;95.04;103521.28;5073318;28;20078;-67
2022/01/14 04:09:38;;;;;;;70.97;13.15;;;;;;;1.61;95.18;103515.19;5072458;28;20072;-67
2022/01/14 04:12:06;;;;;;;65.72;12.93;;;;;;;1.57;94.83;103512.72;5072064;28;20028;-68
2022/01/14 04:16:58;;;;;;;82.50;13.82;;;;;;;1.63;95.46;103510.59;5075242;28;20050;-67
2022/01/14 04:19:27;;;;;;;21.80;12.27;;;;;;;1.63;95.05;103510.59;5076227;28;20111;-67
2022/01/14 04:21:54;;;;;;;45.30;12.30;;;;;;;1.59;95.04;103509.97;5075680;28;20033;-67
2022/01/14 04:24:19;;;;;;;65.70;13.07;;;;;;;1.60;95.58;103506.31;5074749;28;20033;-67
2022/01/14 04:26:44;;;;;;;65.80;12.18;;;;;;;1.56;94.93;103510.16;5075829;28;20376;-67
2022/01/14 04:29:09;;;;;;;52.10;12.35;;;;;;;1.51;95.60;103506.91;5077395;28;20032;-67
2022/01/14 04:31:35;;;;;;;41.75;12.43;;;;;;;1.51;95.56;103507.78;5075382;28;20028;-68
2022/01/14 04:34:00;;;;;;;78.55;12.80;;;;;;;1.50;95.73;103503.41;5075452;28;20392;-67
2022/01/14 04:36:25;;;;;;;62.30;11.98;;;;;;;1.49;95.47;103504.34;5074615;28;20081;-68
2022/01/14 04:38:51;;;;;;;31.20;12.27;;;;;;;1.50;95.29;103500.72;5075773;28;20111;-67
2022/01/14 04:41:16;;;;;;;56.90;12.23;;;;;;;1.53;95.12;103500.53;5075746;28;20028;-68
2022/01/14 04:43:41;;;;;;;45.58;11.63;;;;;;;1.45;95.14;103486.84;5075371;28;20043;-67
2022/01/14 04:48:34;;;;;;;80.47;11.82;;;;;;;1.41;94.92;103480.00;5055627;28;20461;-68
2022/01/14 04:51:01;;;;;;;58.85;11.77;;;;;;;1.38;95.06;103475.69;5073118;28;20032;-68
2022/01/14 04:53:28;;;;;;;43.40;11.40;;;;;;;1.38;95.17;103483.72;5075504;28;20418;-67
2022/01/14 04:55:55;;;;;;;47.72;11.55;;;;;;;1.33;95.17;103467.16;5075314;28;20064;-67
2022/01/14 04:58:21;;;;;;;60.55;12.68;;;;;;;1.38;96.03;103478.38;5075480;28;20407;-67
2022/01/14 05:00:47;;;;;;;32.40;11.07;;;;;;;1.38;95.85;103467.69;5072070;28;20058;-68
2022/01/14 05:03:12;;;;;;;26.52;11.05;;;;;;;1.42;95.96;103469.22;5075515;28;20036;-67
2022/01/14 05:05:40;;;;;;;54.50;12.20;;;;;;;1.45;95.07;103460.16;5075504;28;20025;-67
2022/01/14 05:08:11;;;;;;;60.22;11.60;;;;;;;1.45;95.25;103460.16;5073861;28;20032;-68
2022/01/14 05:10:49;;;;;;;28.42;10.85;;;;;;;1.46;95.77;103456.50;5075556;28;20623;-67
2022/01/14 05:13:15;;;;;;;67.22;11.57;;;;;;;1.45;95.29;103453.94;5076359;28;20033;-67
2022/01/14 05:15:40;;;;;;;41.53;10.70;;;;;;;1.45;95.37;103460.16;5074405;28;20028;-68
2022/01/14 05:18:06;;;;;;;84.80;12.10;;;;;;;1.38;94.62;103456.19;5074567;28;20052;-67
2022/01/14 05:20:31;;;;;;;57.83;10.68;;;;;;;1.36;94.76;103440.28;5075063;28;20033;-67
2022/01/14 05:22:56;;;;;;;68.20;11.45;;;;;;;1.31;95.04;103453.03;5074465;28;20028;-67
2022/01/14 05:25:22;;;;;;;55.28;10.43;;;;;;;1.29;95.32;103454.13;5074934;28;20091;-67
2022/01/14 05:27:47;;;;;;;61.60;11.73;;;;;;;1.28;95.52;103449.72;5074500;28;20056;-67
2022/01/14 05:30:15;;;;;;;25.52;11.00;;;;;;;1.29;95.09;103454.13;5070805;28;20112;-68
2022/01/14 05:32:49;;;;;;;49.90;10.60;;;;;;;1.28;95.70;103447.91;5054820;28;20039;-68
2022/01/14 05:35:20;;;;;;;76.40;10.80;;;;;;;1.28;95.33;103452.38;5069554;28;20032;-68
2022/01/14 05:37:45;;;;;;;53.20;9.80;;;;;;;1.21;95.17;103442.13;5074356;28;20059;-68
2022/01/14 05:40:12;;;;;;;35.28;10.75;;;;;;;1.18;95.57;103441.47;5074754;28;20020;-68
2022/01/14 05:42:37;;;;;;;36.65;10.30;;;;;;;1.18;94.87;103453.00;5070966;28;20052;-68
2022/01/14 05:45:07;;;;;;;27.90;10.02;;;;;;;1.21;95.82;103447.44;5063894;28;20055;-68
2022/01/14 05:47:34;;;;;;;25.10;10.25;;;;;;;1.27;95.44;103445.34;5074631;28;20069;-68
2022/01/14 05:50:00;;;;;;;48.90;10.13;;;;;;;1.25;95.24;103442.75;5074383;28;20024;-68
2022/01/14 05:52:25;;;;;;;24.13;10.00;;;;;;;1.26;94.83;103441.81;5074489;28;20056;-68
2022/01/14 05:54:53;;;;;;;37.03;10.32;;;;;;;1.26;95.13;103443.63;5074312;28;20498;-68
2022/01/14 05:57:19;;;;;;;28.02;10.48;;;;;;;1.17;94.46;103431.75;5075555;28;20043;-68
2022/01/14 05:59:44;;;;;;;17.65;9.90;;;;;;;1.22;95.10;103441.19;5073697;28;20048;-68
2022/01/14 06:02:10;;;;;;;34.50;9.90;;;;;;;1.24;95.27;103433.91;5071488;28;20379;-68
2022/01/14 06:04:35;;;;;;;31.13;9.73;;;;;;;1.26;94.60;103435.63;5073977;28;20039;-68
2022/01/14 06:07:03;;;;;;;45.40;10.40;;;;;;;1.22;94.33;103442.97;5073943;28;20060;-68
2022/01/14 06:09:28;;;;;;;32.05;10.63;;;;;;;1.19;94.93;103438.72;5072569;28;20110;-68
2022/01/14 06:11:53;;;;;;;53.13;11.20;;;;;;;1.16;94.53;103433.56;5073768;28;20063;-68
2022/01/14 06:14:19;;;;;;;24.20;11.02;;;;;;;1.16;95.22;103444.25;5065810;28;20032;-68
2022/01/14 06:16:44;;;;;;;24.00;10.82;;;;;;;1.14;94.61;103443.47;5055753;28;20028;-68
2022/01/14 06:19:09;;;;;;;24.20;11.02;;;;;;;1.16;95.29;103449.56;5066188;28;20047;-68
2022/01/14 06:21:35;;;;;;;25.40;10.60;;;;;;;1.17;95.00;103450.41;5094227;28;20031;-68
2022/01/14 06:24:00;;;;;;;18.23;10.77;;;;;;;1.23;94.94;103447.34;5093820;28;20028;-68
2022/01/14 06:26:25;;;;;;;52.13;11.38;;;;;;;1.26;94.63;103451.66;5094010;28;20569;-68
2022/01/14 06:28:51;;;;;;;54.42;11.98;;;;;;;1.22;94.73;103449.19;5092505;28;20039;-68
2022/01/14 06:31:16;;;;;;;26.92;11.60;;;;;;;1.22;95.30;103448.31;5090682;28;20020;-68
2022/01/14 06:33:42;;;;;;;32.38;11.48;;;;;;;1.22;94.39;103454.50;5073525;28;20115;-68
2022/01/14 06:36:08;;;;;;;19.77;11.43;;;;;;;1.28;94.52;103457.72;5073457;28;20043;-68
2022/01/14 06:38:33;;;;;;;32.15;11.55;;;;;;;1.24;94.90;103443.75;5072935;28;20033;-68
2022/01/14 06:40:59;;;;;;;39.28;11.18;;;;;;;1.24;94.10;103446.41;5073230;28;20050;-68
2022/01/14 06:43:24;;;;;;;29.98;11.30;;;;;;;1.24;94.27;103460.59;5072957;28;20078;-68
2022/01/14 06:45:50;;;;;;;28.33;11.68;;;;;;;1.28;94.20;103439.91;5072438;28;20103;-68
2022/01/14 06:48:15;;;;;;;36.33;13.10;;;;;;;1.31;94.68;103438.84;5072978;28;20067;-68
2022/01/14 06:50:40;;;;;;;33.08;11.73;;;;;;;1.30;94.50;103430.00;5072028;28;20028;-68
2022/01/14 06:53:05;;;;;;;40.90;12.05;;;;;;;1.27;94.04;103419.53;5072998;28;20043;-67
2022/01/14 06:55:31;;;;;;;69.20;13.40;;;;;;;1.22;94.22;103433.19;5072956;28;20047;-68
2022/01/14 06:57:56;;;;;;;23.95;12.68;;;;;;;1.26;94.84;103436.47;5073006;28;20021;-69
2022/01/14 07:00:21;;;;;;;29.50;12.70;;;;;;;1.24;94.60;103433.91;5072573;28;20056;-68
2022/01/14 07:02:48;;;;;;;35.88;12.98;;;;;;;1.28;94.52;103439.91;5051512;28;20460;-68
2022/01/14 07:05:13;;;;;;;39.65;13.65;;;;;;;1.24;94.40;103441.91;5073406;28;20040;-68
2022/01/14 07:07:39;;;;;;;56.17;13.50;;;;;;;1.26;94.44;103443.63;5071683;28;20388;-68
2022/01/14 07:10:06;;;;;;;52.08;13.48;;;;;;;1.23;93.94;103444.69;5072497;28;20036;-68
2022/01/14 07:12:37;;;;;;;51.30;13.88;;;;;;;1.23;94.44;103450.88;5072804;28;20032;-69
2022/01/14 07:15:05;;;;;;;32.03;13.98;;;;;;;1.27;93.90;103458.66;5071233;28;20123;-68
2022/01/14 07:17:30;;;;;;;34.33;13.85;;;;;;;1.28;94.62;103458.56;5072036;28;20029;-68
2022/01/14 07:20:00;;;;;;;29.25;14.27;;;;;;;1.36;94.02;103460.75;5071326;28;20051;-68
2022/01/14 07:22:25;;;;;;;61.22;14.43;;;;;;;1.34;93.99;103466.16;5072324;28;20063;-68
2022/01/14 07:24:50;;;;;;;50.45;14.02;;;;;;;1.28;93.77;103465.72;5072559;28;20107;-68
2022/01/14 07:27:15;;;;;;;48.80;15.27;;;;;;;1.28;93.82;103471.91;5073566;28;20056;-68
2022/01/14 07:29:41;;;;;;;44.28;15.10;;;;;;;1.29;93.95;103468.28;5072999;28;20036;-68
2022/01/14 07:32:07;;;;;;;35.95;14.95;;;;;;;1.28;93.73;103458.56;5071306;28;20476;-69
2022/01/14 07:34:32;;;;;;;67.65;14.95;;;;;;;1.26;94.41;103459.66;5072250;28;20133;-72
2022/01/14 07:36:58;;;;;;;58.45;14.48;;;;;;;1.22;93.81;103454.50;5054309;28;20110;-70
2022/01/14 07:39:24;;;;;;;69.55;14.80;;;;;;;1.17;93.69;103459.25;5051090;28;20456;-70
2022/01/14 07:41:50;;;;;;;46.45;13.93;;;;;;;1.12;93.97;103458.72;5052588;28;20373;-72
2022/01/14 07:44:16;;;;;;;41.15;15.30;;;;;;;1.13;93.81;103468.41;5051797;28;20037;-73
2022/01/14 07:46:42;;;;;;;77.43;14.93;;;;;;;1.14;94.08;103463.97;5052151;28;20028;-77
2022/01/14 07:49:07;;;;;;;32.65;15.05;;;;;;;1.12;94.20;103461.38;5063921;28;20119;-76
2022/01/14 07:51:33;;;;;;;42.97;15.55;;;;;;;1.10;94.25;103455.28;5055629;28;20431;-76
2022/01/14 07:54:04;;;;;;;47.58;15.20;;;;;;;1.14;94.22;103456.81;5050850;28;20075;-75
2022/01/14 07:56:29;;;;;;;37.15;15.20;;;;;;;1.20;94.86;103461.75;5052483;28;20090;-74
2022/01/14 07:58:55;;;;;;;33.78;15.55;;;;;;;1.24;94.13;103457.94;5052004;28;21239;-73
2022/01/14 08:01:20;;;;;;;42.13;15.80;;;;;;;1.23;94.30;103458.03;5050075;28;20052;-78
2022/01/14 08:03:45;;;;;;;80.50;16.48;;;;;;;1.22;94.65;103449.19;5059277;28;20125;-73
2022/01/14 08:06:12;;;;;;;50.15;15.30;;;;;;;1.18;93.67;103442.31;5072075;28;20036;-74
2022/01/14 08:08:40;;;;;;;43.65;15.93;;;;;;;1.25;94.86;103458.78;5072090;28;20032;-78
2022/01/14 08:11:06;;;;;;;34.72;14.88;;;;;;;1.22;94.45;103456.31;5073171;28;20037;-75
2022/01/14 08:13:34;;;;;;;65.93;16.05;;;;;;;1.24;94.18;103463.25;5071255;28;20036;-77
2022/01/14 08:16:00;;;;;;;32.40;15.35;;;;;;;1.29;94.12;103470.97;5071119;28;20102;-75
2022/01/14 08:18:25;;;;;;;62.05;16.08;;;;;;;1.27;94.36;103459.53;5071930;28;20427;-74
2022/01/14 08:20:51;;;;;;;30.08;15.68;;;;;;;1.30;94.00;103462.00;5072201;28;20078;-73
2022/01/14 08:23:16;;;;;;;57.17;16.00;;;;;;;1.30;94.55;103447.81;5071617;28;20450;-71
2022/01/14 08:25:42;;;;;;;51.35;15.25;;;;;;;1.23;93.75;103445.53;5072071;28;20118;-72
2022/01/14 08:28:07;;;;;;;64.18;16.30;;;;;;;1.27;93.68;103442.66;5072108;28;20020;-74
2022/01/14 08:30:32;;;;;;;78.93;16.80;;;;;;;1.26;93.95;103440.97;5069891;28;20158;-73
2022/01/14 08:32:58;;;;;;;50.97;15.90;;;;;;;1.25;94.83;103458.78;5072431;28;20024;-72
2022/01/14 08:35:23;;;;;;;66.68;16.23;;;;;;;1.28;94.25;103447.06;5071928;28;20364;-73
2022/01/14 08:37:48;;;;;;;92.15;16.17;;;;;;;1.23;93.95;103440.19;5072028;28;20470;-72
2022/01/14 08:40:13;;;;;;;72.07;16.05;;;;;;;1.24;94.76;103441.06;5071826;28;20040;-76
2022/01/14 08:42:39;;;;;;;49.03;15.90;;;;;;;1.29;94.50;103443.44;5071394;28;20041;-71
2022/01/14 08:45:05;;;;;;;36.50;16.33;;;;;;;1.28;94.11;103442.56;5071621;28;20036;-70
2022/01/14 08:47:31;;;;;;;111.55;16.48;;;;;;;1.28;94.54;103473.72;5070867;28;20033;-71
2022/01/14 08:49:56;;;;;;;53.45;16.35;;;;;;;1.23;94.20;103474.88;5070312;28;20039;-71
2022/01/14 08:52:22;;;;;;;37.75;17.75;;;;;;;1.24;94.48;103473.94;5062431;28;20048;-72
2022/01/14 08:54:47;;;;;;;76.25;17.58;;;;;;;1.26;94.56;103476.50;5071460;28;20040;-73
2022/01/14 08:57:13;;;;;;;40.42;17.23;;;;;;;1.30;94.87;103463.81;5070300;28;20062;-70
2022/01/14 08:59:40;;;;;;;56.85;17.48;;;;;;;1.31;94.91;103450.38;5070070;28;20043;-72
2022/01/14 09:02:05;;;;;;;52.78;18.55;;;;;;;1.33;94.55;103456.47;5070631;28;20418;-70
2022/01/14 09:04:30;;;;;;;46.85;18.02;;;;;;;1.37;95.06;103454.47;5075223;28;20029;-70
2022/01/14 09:06:56;;;;;;;42.78;17.77;;;;;;;1.41;94.74;103448.81;5075330;28;20114;-72
2022/01/14 09:09:22;;;;;;;51.17;18.83;;;;;;;1.44;94.58;103457.59;5075159;28;20060;-70
2022/01/14 09:11:48;;;;;;;36.08;17.67;;;;;;;1.49;94.60;103450.13;5075006;28;20028;-70
2022/01/14 09:14:13;;;;;;;32.85;18.08;;;;;;;1.57;94.84;103455.81;5074902;28;20036;-70
2022/01/14 09:16:38;;;;;;;38.03;17.95;;;;;;;1.60;94.52;103463.59;5071990;28;20028;-75
2022/01/14 09:19:04;;;;;;;43.22;19.17;;;;;;;1.63;94.59;103455.44;5075877;28;20042;-72
2022/01/14 09:21:30;;;;;;;86.40;19.13;;;;;;;1.65;94.37;103460.66;5074751;28;20051;-76
2022/01/14 09:24:08;;;;;;;31.80;18.95;;;;;;;1.68;94.70;103460.47;5074522;28;20067;-72
2022/01/14 09:26:35;;;;;;;38.83;18.00;;;;;;;1.70;94.53;103461.22;5075443;28;20024;-74
2022/01/14 09:29:05;;;;;;;75.28;19.00;;;;;;;1.70;94.59;103454.03;5093399;28;20032;-77
2022/01/14 09:31:31;;;;;;;37.42;18.10;;;;;;;1.80;94.68;103470.31;5092612;28;20052;-78
2022/01/14 09:33:57;;;;;;;27.85;17.75;;;;;;;1.88;94.99;103462.63;5074649;28;20071;-78
2022/01/14 09:36:22;;;;;;;36.13;19.08;;;;;;;1.97;94.72;103468.34;5073062;28;20615;-72
2022/01/14 09:38:48;;;;;;;62.63;18.23;;;;;;;1.99;94.02;103464.56;5074713;28;20033;-75
2022/01/14 09:41:14;;;;;;;42.92;19.05;;;;;;;1.96;93.89;103459.44;5061717;28;20460;-75
2022/01/14 09:43:40;;;;;;;50.60;19.38;;;;;;;1.91;94.53;103458.91;5054528;28;20032;-72
2022/01/14 09:46:08;;;;;;;36.35;18.58;;;;;;;1.89;94.42;103469.69;5052968;28;20025;-72
2022/01/14 09:48:34;;;;;;;43.65;19.58;;;;;;;1.88;94.59;103465.31;5054585;28;20025;-74
2022/01/14 09:51:01;;;;;;;28.15;19.00;;;;;;;1.91;94.71;103472.25;5060358;28;20037;-72
2022/01/14 09:53:28;;;;;;;28.42;18.50;;;;;;;1.91;94.37;103470.44;5073118;28;20612;-73
2022/01/14 09:55:53;;;;;;;37.30;19.30;;;;;;;1.93;95.02;103479.22;5073012;28;20033;-71
2022/01/14 09:58:19;;;;;;;47.00;19.90;;;;;;;1.94;94.73;103474.72;5056532;28;20033;-73
2022/01/14 10:00:44;;;;;;;74.03;20.85;;;;;;;1.93;94.43;103475.69;5056652;28;20043;-77
2022/01/14 10:03:31;;;;;;;55.85;23.02;;;;;;;1.90;94.70;103486.56;5086028;28;20115;-75
2022/01/14 10:05:57;;;;;;;62.47;21.30;;;;;;;1.84;94.52;103485.19;5088342;28;20624;-76
2022/01/14 10:08:26;;;;;;;51.17;21.45;;;;;;;1.86;95.12;103479.75;5073698;28;20036;-76
2022/01/14 10:10:55;;;;;;;50.58;21.88;;;;;;;1.88;95.10;103483.16;5064257;28;20075;-76
2022/01/14 10:13:28;;;;;;;56.97;21.33;;;;;;;1.90;95.05;103487.44;5056648;28;20110;-75
2022/01/14 10:16:00;;;;;;;54.00;20.20;;;;;;;1.92;95.11;103490.84;5055944;28;20056;-74
2022/01/14 10:18:26;;;;;;;45.42;19.17;;;;;;;1.95;94.89;103501.31;5053507;28;20029;-74
2022/01/14 10:20:52;;;;;;;41.92;19.75;;;;;;;1.93;95.25;103497.91;5053865;28;20443;-74
2022/01/14 10:23:47;;;;;;;57.92;20.42;;;;;;;1.99;95.40;103501.97;5053302;28;20053;-74
2022/01/14 10:26:14;;;;;;;34.92;19.55;;;;;;;2.06;94.88;103503.28;5082377;28;20029;-74
2022/01/14 10:28:44;;;;;;;37.50;20.25;;;;;;;2.08;95.01;103490.69;5053721;28;20040;-74
2022/01/14 10:31:10;;;;;;;34.80;19.58;;;;;;;2.13;95.21;103493.06;5070259;28;20032;-73
2022/01/14 10:33:35;;;;;;;38.85;20.45;;;;;;;2.14;94.82;103478.72;5073660;28;20127;-74
2022/01/14 10:36:00;;;;;;;33.25;19.35;;;;;;;2.18;94.87;103490.06;5073667;28;20451;-73
2022/01/14 10:38:36;;;;;;;31.08;19.55;;;;;;;2.24;94.68;103490.47;5071652;28;20025;-73
2022/01/14 10:41:06;;;;;;;36.00;20.90;;;;;;;2.20;94.88;103483.63;5069654;28;20094;-75
2022/01/14 10:43:35;;;;;;;36.60;20.58;;;;;;;2.28;94.68;103480.44;5072621;28;20021;-74
2022/01/14 10:46:05;;;;;;;41.75;21.92;;;;;;;2.33;95.75;103472.13;5059150;28;20033;-74
2022/01/14 10:48:41;;;;;;;34.53;22.17;;;;;;;2.40;95.39;103468.03;5055442;28;20024;-74
2022/01/14 10:51:17;;;;;;;32.67;20.80;;;;;;;2.45;94.89;103474.78;5051868;28;20024;-74
2022/01/14 10:53:53;;;;;;;30.88;20.38;;;;;;;2.47;95.07;103472.00;5053550;28;20056;-75
2022/01/14 10:56:25;;;;;;;41.95;26.38;;;;;;;2.50;94.72;103474.47;5051626;28;20479;-72
2022/01/14 10:58:56;;;;;;;44.85;26.70;;;;;;;2.53;94.82;103474.25;5052744;28;20083;-70
2022/01/14 11:01:24;;;;;;;35.42;22.17;;;;;;;2.53;94.49;103466.22;5050744;28;20037;-69
2022/01/14 11:03:56;;;;;;;37.67;23.67;;;;;;;2.56;94.80;103471.38;5058920;28;20474;-70
2022/01/14 11:06:27;;;;;;;34.78;23.73;;;;;;;2.58;94.82;103464.13;5053951;28;20057;-75
2022/01/14 11:09:02;;;;;;;33.85;21.30;;;;;;;2.58;94.59;103460.56;5052825;28;20033;-72
2022/01/14 11:11:30;;;;;;;36.15;22.23;;;;;;;2.65;94.62;103461.84;5067684;28;20039;-70
2022/01/14 11:13:56;;;;;;;34.15;21.30;;;;;;;2.66;94.76;103452.88;5082517;28;20107;-74
2022/01/14 11:16:22;;;;;;;30.25;21.23;;;;;;;2.67;94.70;103449.22;5070266;28;20462;-69
2022/01/14 11:18:47;;;;;;;37.30;23.60;;;;;;;2.72;94.51;103456.91;5086500;28;20032;-77
2022/01/14 11:23:57;;;;;;;33.25;20.88;;;;;;;2.83;94.88;103454.34;5072714;28;20127;-78
2022/01/14 11:26:29;;;;;;;33.30;21.58;;;;;;;2.84;94.58;103453.38;5065298;28;20515;-76
2022/01/14 11:29:01;;;;;;;32.53;22.33;;;;;;;2.88;94.59;103440.63;5061584;28;20464;-73
2022/01/14 11:31:29;;;;;;;32.63;22.33;;;;;;;2.90;95.26;103450.28;5069319;28;20033;-73
2022/01/14 11:33:56;;;;;;;31.67;20.48;;;;;;;2.95;94.56;103447.25;5052683;28;20041;-76
2022/01/14 11:36:23;;;;;;;31.73;20.55;;;;;;;2.96;94.20;103449.81;5052398;28;20128;-78
2022/01/14 11:38:49;;;;;;;31.90;21.65;;;;;;;2.98;94.27;103455.91;5052417;28;20029;-72
2022/01/14 11:41:41;;;;;;;30.75;21.10;;;;;;;2.99;94.33;103452.28;5052314;28;20102;-75
2022/01/14 11:44:09;;;;;;;30.52;20.33;;;;;;;3.04;94.39;103449.28;5070935;28;20509;-73
2022/01/14 11:46:34;;;;;;;30.75;21.45;;;;;;;3.09;94.19;103459.63;5075837;28;20455;-74
2022/01/14 11:49:00;;;;;;;31.50;21.25;;;;;;;3.09;94.21;103449.78;5072316;28;20063;-72